Time;durP1;ratioP1;P1;durP2;ratioP2;P2;SDS_P1;SDS_P2;PMS_P1;PMS_P2;Temp;Humidity;BMP_temperature;BMP_pressure;BME280_temperature;BME280_humidity;BME280_pressure;Samples;Min_cycle;Max_cycle;Signal;HPM_P1;HPM_P2
2022/08/24 00:01:37;;;;;;;5.93;5.00;;;;;;;16.86;79.67;96487.47;5301466;23;20090;-85
2022/08/24 00:04:05;;;;;;;68.35;25.17;;;;;;;16.83;79.82;96485.41;5036342;23;20036;-84
2022/08/24 00:06:53;;;;;;;8.77;5.80;;;;;;;16.80;79.88;96490.81;5034308;28;20045;-85
2022/08/24 00:09:20;;;;;;;18.38;7.40;;;;;;;16.75;79.67;96491.88;5031592;28;20493;-85
2022/08/24 00:14:22;;;;;;;8.20;5.82;;;;;;;16.64;80.53;96479.78;4973082;28;20268;-86
2022/08/24 00:19:24;;;;;;;11.85;7.03;;;;;;;16.64;80.95;96469.56;5590118;23;20043;-84
2022/08/24 00:24:22;;;;;;;7.88;5.55;;;;;;;16.48;80.05;96477.00;4992461;28;20043;-84
2022/08/24 00:26:50;;;;;;;6.60;5.25;;;;;;;16.47;80.53;96475.41;4994511;28;20042;-85
2022/08/24 00:29:19;;;;;;;19.98;8.75;;;;;;;16.44;80.66;96471.44;4994451;28;20054;-84
2022/08/24 00:31:46;;;;;;;9.68;6.03;;;;;;;16.44;81.56;96482.44;4994809;28;20050;-84
2022/08/24 00:34:14;;;;;;;28.88;9.18;;;;;;;16.43;81.61;96485.50;4994608;28;20054;-85
2022/08/24 00:36:42;;;;;;;8.05;5.70;;;;;;;16.42;80.95;96483.94;5568257;23;20038;-84
2022/08/24 00:39:09;;;;;;;117.85;27.42;;;;;;;16.39;80.37;96473.63;5682578;23;20081;-85
2022/08/24 00:44:14;;;;;;;23.17;8.30;;;;;;;16.30;80.12;96481.25;5207045;23;20048;-85
2022/08/24 00:46:46;;;;;;;9.77;5.85;;;;;;;16.29;80.15;96480.47;5032376;28;20103;-85
2022/08/24 00:49:22;;;;;;;21.65;7.97;;;;;;;16.28;80.67;96480.78;5032701;28;20077;-85
2022/08/24 00:54:43;;;;;;;14.65;6.22;;;;;;;16.23;80.90;96486.53;5363835;23;20038;-84
2022/08/24 00:57:13;;;;;;;7.10;5.68;;;;;;;16.11;79.97;96479.16;5033234;28;20118;-83
2022/08/24 00:59:47;;;;;;;9.15;5.80;;;;;;;15.99;79.81;96476.47;5087569;23;20042;-86
2022/08/24 01:02:19;;;;;;;13.05;6.50;;;;;;;16.03;80.29;96485.63;5087747;23;20144;-84
2022/08/24 01:04:52;;;;;;;9.80;6.40;;;;;;;15.93;80.03;96478.69;5034316;28;20488;-85
2022/08/24 01:07:21;;;;;;;23.55;8.65;;;;;;;15.79;80.38;96479.06;5014912;28;20033;-85
2022/08/24 01:12:25;;;;;;;7.43;5.90;;;;;;;15.54;80.34;96483.00;5271788;23;20033;-84
2022/08/24 01:14:56;;;;;;;7.55;5.68;;;;;;;15.50;80.24;96482.06;5036353;28;20096;-85
2022/08/24 01:20:09;;;;;;;16.67;7.45;;;;;;;15.40;81.09;96486.13;5037348;28;20114;-85
2022/08/24 01:25:33;;;;;;;10.32;5.60;;;;;;;15.43;81.01;96481.88;5065632;23;20046;-85
2022/08/24 01:28:05;;;;;;;9.50;6.50;;;;;;;15.40;80.21;96481.44;5018816;28;20030;-83
2022/08/24 01:30:32;;;;;;;10.50;6.70;;;;;;;15.40;80.99;96484.19;5017070;28;20054;-84
2022/08/24 01:33:02;;;;;;;9.60;6.00;;;;;;;15.36;80.68;96474.22;5017066;28;20110;-84
2022/08/24 01:35:30;;;;;;;9.45;6.40;;;;;;;15.34;80.75;96473.75;5015160;28;20038;-86
2022/08/24 01:38:01;;;;;;;7.97;5.65;;;;;;;15.35;80.32;96481.66;5000780;28;20046;-85
2022/08/24 01:40:37;;;;;;;14.98;6.97;;;;;;;15.31;80.29;96478.00;5016697;28;20046;-85
2022/08/24 01:43:06;;;;;;;17.08;7.55;;;;;;;15.27;80.21;96468.88;5015398;28;20073;-84
2022/08/24 01:45:34;;;;;;;11.68;6.38;;;;;;;15.25;80.11;96471.16;5016797;28;20050;-85
2022/08/24 01:48:01;;;;;;;12.63;7.07;;;;;;;15.25;80.38;96468.41;5018047;28;20057;-85
2022/08/24 01:50:30;;;;;;;7.40;5.60;;;;;;;15.23;79.89;96467.94;5101035;23;20061;-86
2022/08/24 01:53:00;;;;;;;9.38;6.93;;;;;;;15.21;79.61;96475.72;5037382;28;20056;-86
2022/08/24 01:55:27;;;;;;;6.05;5.40;;;;;;;15.18;79.94;96472.88;5088984;23;20045;-85
2022/08/24 01:57:57;;;;;;;52.65;10.38;;;;;;;15.16;79.76;96467.75;5559916;23;20029;-79
2022/08/24 02:00:24;;;;;;;11.50;6.18;;;;;;;15.15;79.07;96479.88;5035199;28;20045;-84
2022/08/24 02:02:51;;;;;;;62.50;19.92;;;;;;;15.07;79.24;96475.28;5202365;23;20020;-83
2022/08/24 02:05:19;;;;;;;90.15;25.92;;;;;;;15.06;79.87;96477.22;5109064;23;20042;-84
2022/08/24 02:07:46;;;;;;;10.05;6.22;;;;;;;15.00;79.95;96477.81;5092188;23;20058;-84
2022/08/24 02:10:15;;;;;;;26.48;9.63;;;;;;;15.02;80.70;96475.50;5014266;28;20053;-84
2022/08/24 02:12:45;;;;;;;11.35;6.57;;;;;;;14.86;81.02;96480.88;4987658;23;20042;-84
2022/08/24 02:15:14;;;;;;;24.98;9.60;;;;;;;14.73;80.95;96485.56;5235296;23;20046;-85
2022/08/24 02:22:52;;;;;;;10.63;7.18;;;;;;;14.70;80.84;96482.72;5273718;23;20042;-83
2022/08/24 02:25:20;;;;;;;19.33;8.65;;;;;;;14.76;80.64;96476.66;5017798;28;20070;-85
2022/08/24 02:27:48;;;;;;;10.05;6.13;;;;;;;14.82;81.28;96480.75;5016778;28;20510;-85
2022/08/24 02:30:17;;;;;;;7.93;5.70;;;;;;;14.83;81.02;96482.38;5017016;28;20038;-85
2022/08/24 02:32:44;;;;;;;8.77;6.03;;;;;;;14.81;80.11;96481.91;5016854;28;20069;-85
2022/08/24 02:37:53;;;;;;;8.18;5.80;;;;;;;14.75;79.69;96486.03;5015275;28;20115;-84
2022/08/24 02:40:28;;;;;;;7.97;6.20;;;;;;;14.79;79.55;96486.94;5015846;28;20050;-84
2022/08/24 02:45:32;;;;;;;7.57;5.90;;;;;;;14.76;80.65;96492.31;5793234;23;20037;-85
2022/08/24 02:48:24;;;;;;;9.45;6.00;;;;;;;14.75;79.72;96501.66;5034046;28;20030;-85
2022/08/24 02:55:58;;;;;;;6.80;5.97;;;;;;;14.65;79.98;96497.44;5262081;23;20030;-86
2022/08/24 02:58:28;;;;;;;7.55;6.20;;;;;;;14.67;80.32;96495.16;5016070;28;20046;-85
2022/08/24 03:01:12;;;;;;;6.40;5.55;;;;;;;14.63;80.72;96491.50;5043144;23;20050;-86
2022/08/24 03:06:14;;;;;;;10.25;6.97;;;;;;;14.62;80.83;96487.16;5116182;23;19913;-85
2022/08/24 03:08:42;;;;;;;8.32;6.50;;;;;;;14.61;81.72;96480.06;5036328;28;20113;-86
2022/08/24 03:11:09;;;;;;;11.02;8.25;;;;;;;14.57;82.12;96485.44;5041550;23;20030;-84
2022/08/24 03:13:39;;;;;;;9.30;6.35;;;;;;;14.63;82.25;96483.28;5036386;28;20061;-85
2022/08/24 03:16:07;;;;;;;7.75;6.68;;;;;;;14.69;82.37;96487.38;5035857;28;20049;-84
2022/08/24 03:18:36;;;;;;;7.03;6.32;;;;;;;14.58;81.40;96491.72;5049980;23;20025;-85
2022/08/24 03:21:05;;;;;;;8.52;6.32;;;;;;;14.63;82.32;96490.69;5035582;28;20058;-79
2022/08/24 03:23:32;;;;;;;8.13;6.47;;;;;;;14.63;81.93;96487.97;5537933;23;20062;-84
2022/08/24 03:26:00;;;;;;;7.20;5.82;;;;;;;14.64;81.54;96490.34;4995990;28;20063;-85
2022/08/24 03:28:27;;;;;;;7.95;6.88;;;;;;;14.65;81.76;96486.47;4995280;28;20082;-84
2022/08/24 03:30:55;;;;;;;17.33;13.23;;;;;;;14.61;81.41;96488.28;5302785;23;20045;-82
2022/08/24 03:33:22;;;;;;;7.85;5.20;;;;;;;14.60;81.33;96483.94;5034018;28;20037;-85
2022/08/24 03:38:25;;;;;;;6.38;5.63;;;;;;;14.54;80.81;96479.84;5213248;23;20042;-86
2022/08/24 03:46:06;;;;;;;9.35;6.50;;;;;;;14.41;81.31;96486.38;5183647;23;20048;-85
2022/08/24 03:48:33;;;;;;;8.50;6.22;;;;;;;14.39;81.13;96500.44;5035904;28;20042;-86
2022/08/24 03:51:01;;;;;;;9.40;6.75;;;;;;;14.48;81.37;96486.69;5035951;28;20050;-85
2022/08/24 03:53:29;;;;;;;7.63;6.20;;;;;;;14.49;81.90;96496.50;5035458;28;20038;-84
2022/08/24 03:58:24;;;;;;;9.35;6.00;;;;;;;14.47;82.43;96496.84;5190477;23;20066;-84
2022/08/24 04:00:51;;;;;;;8.27;6.55;;;;;;;14.48;81.67;96503.13;4997136;28;20074;-84
2022/08/24 04:03:21;;;;;;;14.95;8.60;;;;;;;14.38;81.98;96504.31;5312427;23;20095;-86
2022/08/24 04:05:48;;;;;;;8.57;5.90;;;;;;;14.39;81.64;96507.84;5007225;28;20035;-85
2022/08/24 04:08:15;;;;;;;8.35;5.97;;;;;;;14.43;82.35;96506.03;5021917;23;20049;-85
2022/08/24 04:10:45;;;;;;;9.73;7.05;;;;;;;14.39;82.17;96494.16;5459197;23;20026;-80
2022/08/24 04:13:12;;;;;;;6.45;5.38;;;;;;;14.41;81.76;96497.34;5360129;23;20134;-85
2022/08/24 04:18:15;;;;;;;11.70;8.35;;;;;;;14.36;82.30;96503.88;6031977;23;20023;-85
2022/08/24 04:23:25;;;;;;;;;;;;;;;14.30;82.42;96503.28;5062647;23;20030;-84
2022/08/24 04:25:53;;;;;;;9.75;6.05;;;;;;;14.31;82.68;96504.88;5034919;28;19960;-84
2022/08/24 04:28:21;;;;;;;8.27;6.32;;;;;;;14.34;83.01;96490.47;5033141;28;20121;-84
2022/08/24 04:30:50;;;;;;;7.13;5.90;;;;;;;14.33;82.20;96494.38;5034657;28;20085;-87
2022/08/24 04:33:19;;;;;;;9.90;6.85;;;;;;;14.30;81.57;96499.72;5631171;22;20037;-80
2022/08/24 04:35:48;;;;;;;10.80;7.82;;;;;;;14.29;81.58;96504.41;5336498;23;20921;-82
2022/08/24 04:38:16;;;;;;;7.63;6.13;;;;;;;14.26;81.88;96502.34;5036701;28;20038;-84
2022/08/24 04:40:48;;;;;;;7.20;5.70;;;;;;;14.25;82.84;96500.75;5036378;28;20106;-81
2022/08/24 04:43:25;;;;;;;8.07;6.20;;;;;;;14.29;82.73;96512.63;5025043;28;20068;-81
2022/08/24 04:45:55;;;;;;;7.57;6.05;;;;;;;14.31;82.52;96515.03;5035864;28;20117;-81
2022/08/24 04:48:23;;;;;;;8.13;6.10;;;;;;;14.25;82.11;96517.19;5034530;28;20072;-81
2022/08/24 04:50:53;;;;;;;7.03;5.93;;;;;;;14.23;81.92;96521.38;5039583;28;20102;-82
2022/08/24 04:53:24;;;;;;;8.27;6.47;;;;;;;14.21;82.24;96527.22;5035353;28;20113;-81
2022/08/24 04:55:56;;;;;;;8.50;6.30;;;;;;;14.23;82.44;96529.59;5034256;28;20440;-81
2022/08/24 04:58:26;;;;;;;10.77;6.40;;;;;;;14.19;82.52;96532.22;5036499;28;20046;-81
2022/08/24 05:00:57;;;;;;;7.93;6.00;;;;;;;14.19;82.92;96526.72;5038491;28;20038;-82
2022/08/24 05:03:27;;;;;;;7.70;5.95;;;;;;;14.21;83.21;96540.91;5039953;28;20037;-81
2022/08/24 05:05:56;;;;;;;8.93;5.78;;;;;;;14.26;83.85;96542.63;5036267;28;20033;-81
2022/08/24 05:08:27;;;;;;;8.07;6.28;;;;;;;14.39;84.38;96532.50;5028995;28;20117;-81
2022/08/24 05:11:07;;;;;;;8.20;6.90;;;;;;;14.50;84.52;96550.16;5037712;28;20110;-81
2022/08/24 05:13:51;;;;;;;7.07;6.05;;;;;;;14.57;84.87;96550.41;5045489;28;20033;-81
2022/08/24 05:16:21;;;;;;;10.82;7.25;;;;;;;14.66;85.41;96553.03;5039728;28;20054;-81
2022/08/24 05:18:55;;;;;;;12.05;7.47;;;;;;;14.71;84.90;96547.34;5039505;28;20102;-82
2022/08/24 05:21:43;;;;;;;9.95;8.30;;;;;;;14.79;85.01;96558.22;5032085;28;20044;-83
2022/08/24 05:24:12;;;;;;;14.20;8.75;;;;;;;14.83;84.66;96553.66;5030354;28;20038;-80
2022/08/24 05:26:45;;;;;;;11.52;7.80;;;;;;;14.93;85.29;96552.44;5040576;28;20073;-81
2022/08/24 05:29:36;;;;;;;9.82;8.25;;;;;;;14.98;85.39;96556.84;5025629;28;20042;-82
2022/08/24 05:32:04;;;;;;;8.95;8.05;;;;;;;15.03;85.29;96548.41;5016361;28;20114;-78
2022/08/24 05:34:32;;;;;;;11.43;8.55;;;;;;;15.14;85.57;96557.81;5026728;28;20087;-83
2022/08/24 05:37:01;;;;;;;11.50;8.10;;;;;;;15.20;86.05;96555.63;5024751;28;20034;-83
2022/08/24 05:39:29;;;;;;;11.88;8.52;;;;;;;15.25;85.60;96556.22;5019272;28;20090;-83
2022/08/24 05:41:58;;;;;;;13.05;8.93;;;;;;;15.26;85.73;96560.53;5019287;28;20061;-83
2022/08/24 05:45:04;;;;;;;10.20;8.57;;;;;;;15.35;86.04;96558.50;5019166;28;20061;-83
2022/08/24 05:47:30;;;;;;;11.55;8.20;;;;;;;15.38;86.48;96552.31;5019430;28;20046;-83
2022/08/24 05:49:57;;;;;;;14.68;9.80;;;;;;;15.43;86.66;96553.22;5022445;28;20049;-83
2022/08/24 05:52:23;;;;;;;14.35;10.32;;;;;;;15.46;86.74;96558.81;5051045;23;20049;-81
2022/08/24 05:54:52;;;;;;;15.05;11.57;;;;;;;15.33;88.41;96560.75;5000928;28;20053;-81
2022/08/24 05:57:18;;;;;;;13.80;10.20;;;;;;;15.44;88.22;96557.56;4999989;28;20053;-78
2022/08/24 05:59:47;;;;;;;14.43;10.40;;;;;;;15.58;88.36;96567.03;4992907;28;20129;-80
2022/08/24 06:02:13;;;;;;;13.50;10.13;;;;;;;15.69;88.45;96564.66;4994970;28;20061;-79
2022/08/24 06:04:40;;;;;;;13.25;9.55;;;;;;;15.83;88.35;96562.34;4999071;28;20061;-86
2022/08/24 06:07:09;;;;;;;13.82;10.60;;;;;;;15.99;88.09;96561.63;5002241;28;20058;-83
2022/08/24 06:09:36;;;;;;;13.35;9.77;;;;;;;16.01;87.70;96562.06;5014900;28;20042;-85
2022/08/24 06:12:06;;;;;;;13.75;10.68;;;;;;;16.04;88.09;96562.19;5015055;28;20042;-83
2022/08/24 06:14:33;;;;;;;15.07;10.60;;;;;;;16.11;87.67;96556.88;5016702;28;20327;-86
2022/08/24 06:17:04;;;;;;;18.40;12.05;;;;;;;16.12;88.44;96557.69;5008961;28;20059;-85
2022/08/24 06:19:31;;;;;;;20.67;12.15;;;;;;;16.20;88.31;96559.50;5000744;28;20049;-82
2022/08/24 06:22:23;;;;;;;16.00;12.55;;;;;;;16.12;88.99;96565.91;5009648;28;20046;-84
2022/08/24 06:27:40;;;;;;;19.58;13.40;;;;;;;16.23;89.15;96568.97;5007660;28;20038;-86
2022/08/24 06:30:09;;;;;;;16.60;13.93;;;;;;;16.12;90.27;96571.41;5013673;28;20077;-85
2022/08/24 06:32:38;;;;;;;18.27;13.63;;;;;;;16.15;90.94;96557.78;5008188;28;20042;-79
2022/08/24 06:35:08;;;;;;;17.42;13.52;;;;;;;16.26;91.50;96558.09;4995860;28;20102;-83
2022/08/24 06:37:35;;;;;;;17.95;13.90;;;;;;;16.29;92.12;96562.09;4998446;28;20046;-80
2022/08/24 06:40:02;;;;;;;20.02;14.55;;;;;;;16.34;92.96;96557.16;5009986;28;20046;-81
2022/08/24 06:42:29;;;;;;;22.10;17.40;;;;;;;16.47;93.04;96557.09;5005345;28;20498;-81
2022/08/24 06:44:56;;;;;;;22.42;16.40;;;;;;;16.54;92.40;96563.56;5005070;28;20050;-78
2022/08/24 06:47:22;;;;;;;20.20;14.27;;;;;;;16.71;92.36;96565.25;4993010;28;20542;-78
2022/08/24 06:50:03;;;;;;;32.25;23.80;;;;;;;16.87;91.77;96568.81;4997092;28;20042;-81
2022/08/24 06:52:30;;;;;;;24.48;16.42;;;;;;;17.07;91.26;96577.16;4995710;28;20046;-82
2022/08/24 06:54:56;;;;;;;20.30;13.85;;;;;;;17.10;90.66;96576.44;4989240;28;20058;-82
2022/08/24 06:57:23;;;;;;;16.00;12.10;;;;;;;17.20;90.39;96579.47;4980906;28;20050;-83
2022/08/24 06:59:49;;;;;;;13.20;11.00;;;;;;;17.34;90.10;96573.53;4982109;28;20062;-81
2022/08/24 07:02:17;;;;;;;12.90;11.02;;;;;;;17.59;89.39;96578.81;4978772;28;20043;-79
2022/08/24 07:04:44;;;;;;;16.25;12.48;;;;;;;17.62;88.46;96583.59;4974893;28;20097;-78
2022/08/24 07:07:12;;;;;;;14.63;10.35;;;;;;;17.82;88.05;96581.75;4972939;28;20206;-80
2022/08/24 07:09:39;;;;;;;44.00;32.22;;;;;;;17.92;86.12;96579.22;4974933;28;20047;-80
2022/08/24 07:12:06;;;;;;;14.55;9.25;;;;;;;18.16;85.46;96577.34;4972357;28;20055;-78
2022/08/24 07:14:33;;;;;;;15.43;8.80;;;;;;;18.21;84.81;96579.81;4972596;28;20086;-79
2022/08/24 07:16:59;;;;;;;14.23;8.95;;;;;;;18.34;84.44;96573.00;4974674;28;20069;-80
2022/08/24 07:19:26;;;;;;;12.45;9.20;;;;;;;18.40;83.24;96585.34;4971535;28;20050;-77
2022/08/24 07:21:56;;;;;;;11.40;9.48;;;;;;;18.39;81.58;96589.28;4974097;28;20050;-79
2022/08/24 07:24:25;;;;;;;13.68;8.82;;;;;;;18.49;81.91;96588.69;4972029;28;20490;-79
2022/08/24 07:26:51;;;;;;;9.23;7.82;;;;;;;18.72;81.45;96585.22;4972559;28;20058;-79
2022/08/24 07:29:18;;;;;;;11.88;9.18;;;;;;;18.81;81.53;96587.75;4971723;28;20050;-79
2022/08/24 07:31:45;;;;;;;12.13;8.63;;;;;;;19.00;80.44;96580.22;4971750;28;20074;-77
2022/08/24 07:34:12;;;;;;;10.90;7.97;;;;;;;19.13;78.82;96582.81;4971738;28;20170;-78
2022/08/24 07:36:39;;;;;;;10.00;7.20;;;;;;;19.31;76.72;96581.13;4975507;28;20043;-80
2022/08/24 07:39:07;;;;;;;10.25;7.05;;;;;;;19.66;74.02;96575.41;4978343;28;20106;-80
2022/08/24 07:41:40;;;;;;;9.00;6.63;;;;;;;20.14;72.58;96572.13;4976543;28;20042;-81
2022/08/24 07:44:08;;;;;;;7.38;6.22;;;;;;;20.43;70.17;96571.31;4988357;28;20046;-80
2022/08/24 07:46:35;;;;;;;6.10;5.03;;;;;;;21.03;69.80;96576.75;4995664;28;20034;-83
2022/08/24 07:49:01;;;;;;;6.93;5.60;;;;;;;20.83;67.04;96572.59;4978617;28;20074;-82
2022/08/24 07:51:28;;;;;;;6.60;5.13;;;;;;;21.00;65.48;96577.53;4966474;28;20051;-85
2022/08/24 07:53:54;;;;;;;8.80;4.85;;;;;;;21.30;66.06;96580.22;4988553;28;20126;-83
2022/08/24 07:56:21;;;;;;;9.48;4.75;;;;;;;21.50;64.92;96571.66;4983119;28;20047;-78
2022/08/24 07:58:49;;;;;;;9.50;4.97;;;;;;;21.68;63.93;96571.78;4972691;28;20679;-79
2022/08/24 08:01:16;;;;;;;6.78;4.68;;;;;;;22.03;65.44;96574.81;4974146;28;20050;-78
2022/08/24 08:03:43;;;;;;;7.32;5.97;;;;;;;22.16;63.08;96577.28;4971380;28;20502;-78
2022/08/24 08:06:10;;;;;;;8.95;5.97;;;;;;;22.38;62.46;96578.97;4953890;28;20051;-79
2022/08/24 08:08:38;;;;;;;6.90;5.30;;;;;;;22.38;60.76;96576.19;4971553;28;20054;-80
2022/08/24 08:11:06;;;;;;;6.68;5.03;;;;;;;22.57;61.63;96573.09;4971676;28;20054;-80
2022/08/24 08:13:33;;;;;;;5.00;3.65;;;;;;;22.73;62.20;96571.97;4982082;28;20053;-83
2022/08/24 08:16:05;;;;;;;7.22;4.70;;;;;;;22.70;60.42;96576.31;4947012;28;20122;-83
2022/08/24 08:18:32;;;;;;;6.07;4.50;;;;;;;22.91;63.15;96570.03;5007037;23;20033;-81
2022/08/24 08:21:00;;;;;;;5.78;4.38;;;;;;;23.11;61.02;96560.16;4990306;28;20081;-79
2022/08/24 08:26:14;;;;;;;6.00;4.15;;;;;;;23.11;59.24;96571.28;5011506;28;20105;-79
2022/08/24 08:28:41;;;;;;;4.53;3.15;;;;;;;23.22;58.53;96567.72;5016195;28;20050;-81
2022/08/24 08:31:09;;;;;;;4.68;3.22;;;;;;;23.50;59.93;96570.53;5027198;28;20056;-85
2022/08/24 08:33:35;;;;;;;5.00;3.47;;;;;;;23.53;60.02;96566.94;5027800;28;20041;-83
2022/08/24 08:36:05;;;;;;;5.15;3.40;;;;;;;23.61;56.72;96571.31;5028040;28;20049;-81
2022/08/24 08:38:32;;;;;;;5.47;3.53;;;;;;;23.65;56.74;96574.91;5027001;28;20052;-83
2022/08/24 08:41:16;;;;;;;5.10;3.33;;;;;;;23.79;59.73;96573.31;5029119;28;20053;-87
2022/08/24 08:49:13;;;;;;;6.80;3.60;;;;;;;23.71;55.58;96574.53;5140809;23;20060;-82
2022/08/24 08:52:09;;;;;;;4.82;3.50;;;;;;;24.07;58.29;96567.72;5030156;28;20062;-81
2022/08/24 08:54:44;;;;;;;4.70;3.40;;;;;;;24.17;55.65;96571.63;5023020;28;20103;-82
2022/08/24 08:57:31;;;;;;;5.15;3.63;;;;;;;24.27;55.01;96564.47;5035041;28;20042;-82
2022/08/24 09:00:12;;;;;;;4.40;3.13;;;;;;;24.29;53.94;96568.44;5024075;28;20057;-81
2022/08/24 09:03:04;;;;;;;4.65;3.30;;;;;;;24.03;55.02;96578.03;5027850;28;20045;-82
2022/08/24 09:05:51;;;;;;;4.45;2.92;;;;;;;24.15;55.24;96566.47;5032454;28;20064;-81
2022/08/24 09:08:27;;;;;;;4.18;3.13;;;;;;;24.29;55.47;96570.44;5030971;28;20041;-81
2022/08/24 09:11:07;;;;;;;4.75;2.80;;;;;;;24.43;56.51;96573.16;5029304;28;20050;-81
2022/08/24 09:13:58;;;;;;;4.28;3.40;;;;;;;24.58;57.78;96574.69;5021018;28;20044;-81
2022/08/24 09:16:37;;;;;;;3.63;2.95;;;;;;;24.59;53.16;96569.94;5015959;28;20049;-83
2022/08/24 09:19:30;;;;;;;4.60;3.50;;;;;;;24.45;55.61;96565.22;5006710;28;20127;-81
2022/08/24 09:22:09;;;;;;;3.72;2.75;;;;;;;24.38;55.16;96571.63;5024698;28;20039;-81
2022/08/24 09:24:50;;;;;;;6.85;3.00;;;;;;;24.39;54.62;96567.63;4998057;28;20046;-81
2022/08/24 09:27:24;;;;;;;7.03;2.80;;;;;;;24.34;56.62;96564.44;4999138;28;20594;-81
2022/08/24 09:30:05;;;;;;;4.00;3.05;;;;;;;24.25;53.82;96566.84;4999068;28;20421;-81
2022/08/24 09:32:45;;;;;;;4.93;2.28;;;;;;;24.53;54.90;96565.97;4999302;28;20046;-81
2022/08/24 09:35:18;;;;;;;5.15;2.90;;;;;;;24.58;53.36;96569.13;4993944;28;20058;-81
2022/08/24 09:37:59;;;;;;;4.75;2.72;;;;;;;24.63;55.84;96565.13;4997867;28;20050;-82
2022/08/24 09:40:44;;;;;;;6.13;3.03;;;;;;;24.79;54.00;96570.22;4993366;28;20125;-80
2022/08/24 09:43:41;;;;;;;5.75;2.72;;;;;;;24.78;51.40;96565.88;4995706;28;20069;-83
2022/08/24 09:46:52;;;;;;;3.92;2.97;;;;;;;24.88;51.50;96559.44;4998738;28;20043;-85
2022/08/24 09:49:54;;;;;;;4.60;2.78;;;;;;;24.51;51.30;96558.03;4997409;28;20077;-83
2022/08/24 09:52:50;;;;;;;5.03;2.60;;;;;;;24.51;54.22;96563.59;4987828;28;20046;-82
2022/08/24 09:55:53;;;;;;;5.28;2.55;;;;;;;24.73;53.25;96559.53;4994732;28;20050;-83
2022/08/24 09:58:29;;;;;;;5.70;2.70;;;;;;;24.89;54.19;96549.88;4992911;28;20054;-84
2022/08/24 10:01:05;;;;;;;4.25;2.60;;;;;;;24.87;51.80;96558.66;4994669;28;20105;-82
2022/08/24 10:03:52;;;;;;;3.78;2.80;;;;;;;24.82;50.55;96549.94;4994779;28;20484;-82
2022/08/24 10:06:28;;;;;;;4.72;2.38;;;;;;;24.82;51.06;96553.50;4995975;28;20057;-82
2022/08/24 10:09:09;;;;;;;5.53;2.80;;;;;;;24.95;52.55;96551.03;4993947;28;20051;-83
2022/08/24 10:11:46;;;;;;;3.78;2.60;;;;;;;24.99;53.69;96544.25;4993505;28;20038;-83
2022/08/24 10:14:19;;;;;;;6.47;3.60;;;;;;;25.01;52.43;96551.44;4992593;28;20053;-84
2022/08/24 10:16:53;;;;;;;3.85;2.33;;;;;;;25.09;52.28;96542.63;4993407;28;20390;-84
2022/08/24 10:19:39;;;;;;;3.90;2.50;;;;;;;24.86;52.64;96543.16;4993981;28;20406;-80
2022/08/24 10:22:17;;;;;;;6.28;2.22;;;;;;;24.70;51.62;96535.28;5012107;28;20416;-81
2022/08/24 10:25:03;;;;;;;4.10;2.35;;;;;;;24.81;53.45;96538.00;5014939;28;20054;-82
2022/08/24 10:28:01;;;;;;;2.58;2.20;;;;;;;24.97;52.04;96534.72;5013303;28;20092;-83
2022/08/24 10:30:45;;;;;;;5.00;2.58;;;;;;;25.08;50.60;96541.03;5003552;28;20057;-83
2022/08/24 10:33:19;;;;;;;3.13;2.10;;;;;;;24.76;49.50;96541.22;5012193;28;20125;-81
2022/08/24 10:36:02;;;;;;;4.82;2.45;;;;;;;24.94;50.12;96541.09;5014559;28;20045;-82
2022/08/24 10:41:54;;;;;;;3.33;2.60;;;;;;;24.65;49.57;96527.34;5012387;28;19933;-83
2022/08/24 10:44:43;;;;;;;3.40;2.33;;;;;;;24.75;47.27;96534.06;5001215;28;20050;-81
2022/08/24 10:47:15;;;;;;;4.15;2.40;;;;;;;24.67;48.16;96526.94;5012197;28;20050;-82
2022/08/24 10:50:29;;;;;;;3.40;2.42;;;;;;;24.69;51.49;96528.13;5022989;28;20083;-82
2022/08/24 10:53:19;;;;;;;3.08;2.05;;;;;;;24.44;47.93;96527.47;5021492;28;20103;-81
2022/08/24 10:55:49;;;;;;;3.38;2.15;;;;;;;24.41;49.01;96522.69;5019072;28;20034;-80
2022/08/24 10:58:47;;;;;;;3.55;2.00;;;;;;;24.37;49.21;96524.69;5018062;28;20045;-82
2022/08/24 11:01:32;;;;;;;2.78;2.05;;;;;;;24.41;51.37;96526.28;5023583;28;20048;-81
2022/08/24 11:04:03;;;;;;;3.13;2.22;;;;;;;24.31;49.63;96529.06;5012671;28;20108;-81
2022/08/24 11:06:32;;;;;;;3.53;2.40;;;;;;;24.16;48.93;96533.88;5015508;28;20072;-81
2022/08/24 11:09:03;;;;;;;3.30;2.20;;;;;;;24.26;50.06;96526.69;5018843;28;20046;-81
2022/08/24 11:11:32;;;;;;;4.97;2.45;;;;;;;23.97;49.32;96531.56;5021569;28;20041;-82
2022/08/24 11:14:02;;;;;;;4.10;2.35;;;;;;;24.07;52.52;96528.75;5026193;28;20046;-81
2022/08/24 11:16:34;;;;;;;2.92;2.20;;;;;;;23.90;50.56;96530.38;5026401;28;20632;-81
2022/08/24 11:19:02;;;;;;;4.20;2.57;;;;;;;23.94;52.68;96527.59;5035986;28;20505;-81
2022/08/24 11:21:37;;;;;;;4.50;2.70;;;;;;;23.90;51.23;96532.38;5031702;28;20285;-82
2022/08/24 11:24:06;;;;;;;3.00;2.22;;;;;;;24.04;51.11;96526.78;5025476;28;20136;-82
2022/08/24 11:26:48;;;;;;;2.72;2.25;;;;;;;24.07;52.57;96525.97;5024738;28;20421;-81
2022/08/24 11:29:14;;;;;;;4.03;2.30;;;;;;;24.04;52.03;96518.44;5024481;28;20057;-81
2022/08/24 11:31:43;;;;;;;3.25;2.30;;;;;;;24.12;52.61;96524.78;5024308;28;20038;-81
2022/08/24 11:34:16;;;;;;;3.22;2.15;;;;;;;24.22;50.50;96526.69;5026027;28;20072;-82
2022/08/24 11:36:42;;;;;;;3.55;2.47;;;;;;;24.49;51.71;96520.69;5020095;28;20050;-81
2022/08/24 11:39:12;;;;;;;4.45;2.13;;;;;;;24.62;50.45;96517.03;5015602;28;20049;-81
2022/08/24 11:41:49;;;;;;;2.65;1.92;;;;;;;24.77;49.12;96519.72;5013176;28;20050;-82
2022/08/24 11:44:27;;;;;;;4.03;2.30;;;;;;;24.82;48.40;96516.50;5012895;28;20046;-83
2022/08/24 11:47:03;;;;;;;4.45;2.25;;;;;;;25.08;49.04;96509.59;5011976;28;20046;-80
2022/08/24 11:49:42;;;;;;;2.20;1.70;;;;;;;25.22;49.38;96512.28;5007945;28;20038;-83
2022/08/24 11:52:16;;;;;;;3.60;2.15;;;;;;;25.28;49.10;96526.59;4991199;28;20057;-84
2022/08/24 11:54:49;;;;;;;3.17;2.33;;;;;;;25.28;49.63;96523.78;4991617;28;20068;-83
2022/08/24 11:57:20;;;;;;;3.47;2.30;;;;;;;25.14;48.50;96516.31;4990262;28;20493;-84
2022/08/24 11:59:54;;;;;;;6.15;2.35;;;;;;;25.01;48.25;96512.44;4991118;28;20057;-84
2022/08/24 12:02:31;;;;;;;3.67;2.50;;;;;;;25.25;50.77;96515.03;4991496;28;20096;-83
2022/08/24 12:05:08;;;;;;;2.90;2.03;;;;;;;25.23;48.94;96517.44;4992751;28;20050;-84
2022/08/24 12:07:51;;;;;;;3.50;2.30;;;;;;;25.20;48.59;96509.91;4995930;28;20047;-84
2022/08/24 12:10:30;;;;;;;2.63;2.08;;;;;;;25.32;49.80;96516.16;5003708;28;20057;-85
2022/08/24 12:13:03;;;;;;;3.05;2.45;;;;;;;25.24;48.99;96521.81;5003614;28;20046;-83
2022/08/24 12:15:39;;;;;;;3.92;2.53;;;;;;;25.18;49.86;96515.09;5003462;28;20042;-83
2022/08/24 12:18:21;;;;;;;3.53;2.20;;;;;;;25.03;50.29;96521.94;4990968;28;20077;-84
2022/08/24 12:20:50;;;;;;;3.13;2.40;;;;;;;25.17;49.49;96515.53;5003796;28;20053;-83
2022/08/24 12:23:23;;;;;;;3.10;2.10;;;;;;;25.09;49.75;96519.53;5010059;28;20500;-83
2022/08/24 12:26:06;;;;;;;4.13;2.40;;;;;;;24.66;49.92;96508.66;5010822;28;20054;-81
2022/08/24 12:28:37;;;;;;;2.95;2.10;;;;;;;24.75;52.44;96506.22;5010576;28;20048;-83
2022/08/24 12:31:10;;;;;;;3.25;2.53;;;;;;;24.52;52.17;96503.16;5024727;28;20053;-80
2022/08/24 12:33:43;;;;;;;4.15;2.50;;;;;;;24.73;49.38;96503.81;5016247;28;20459;-81
2022/08/24 12:36:18;;;;;;;2.67;2.20;;;;;;;25.01;50.27;96501.28;5010699;28;20054;-84
2022/08/24 12:38:50;;;;;;;3.47;2.30;;;;;;;25.22;50.01;96496.38;5010147;28;20422;-83
2022/08/24 12:41:24;;;;;;;3.40;2.38;;;;;;;25.35;51.71;96509.78;5009883;28;20046;-83
2022/08/24 12:43:54;;;;;;;4.95;2.42;;;;;;;25.20;50.27;96503.53;5010002;28;20057;-84
2022/08/24 12:46:23;;;;;;;3.17;2.10;;;;;;;25.04;49.89;96501.22;5009698;28;20050;-83
2022/08/24 12:48:56;;;;;;;3.05;2.38;;;;;;;24.89;50.74;96503.31;5009847;28;20060;-83
2022/08/24 12:51:30;;;;;;;2.70;1.80;;;;;;;24.81;50.94;96503.81;5009042;28;20046;-83
2022/08/24 12:54:19;;;;;;;3.45;2.40;;;;;;;24.71;50.11;96499.88;5010113;28;20408;-83
2022/08/24 12:57:10;;;;;;;2.72;1.98;;;;;;;24.67;51.45;96504.66;5010033;28;20045;-83
2022/08/24 12:59:42;;;;;;;4.50;2.15;;;;;;;24.67;52.05;96494.31;5010064;28;20497;-82
2022/08/24 13:02:27;;;;;;;3.13;2.50;;;;;;;24.65;51.20;96495.94;5009455;28;20050;-84
2022/08/24 13:05:05;;;;;;;5.30;2.28;;;;;;;24.79;52.27;96489.47;5009942;28;20050;-84